HEMA Airport Information

Runway Information
Runway 15 Length 9843 ft width 148 ft
Elevation 247 ft Threshold 0 ft Heading 150
Runway 33 Length 9843 ft Width 148 ft
Elevation 233 ft Threshold 0 ft Heading 330
Airport Frequencies
Type APP Name APP Frequency 121 MHZ
Type EMR Name FIRE Frequency 121.9 MHZ
Type GND Name GND Frequency 121.9 MHZ
Type TWR Name TWR Frequency 121 MHZ
Airport Navaids
Type VOR-DME Name Marsa Alam Frequency 115500 KHZ
Airport Weather Information & NOTAM
ADDS - METARS form results

(0610 UTC 15 September 2019)
Data provider http://aviationweather.gov/metar/data/
 
Forecast for: HEMA (MARSA ALAM INTL , EG)
Text: TAF HEMA 150500Z 1506/1612 30010G20KT CAVOK
Forecast period: 0600 UTC 15 September 2019 to 1200 UTC 16 September 2019
Forecast type: FROM: standard forecast or significant change
Winds: from the WNW (300 degrees) at 12 MPH (10 knots; 5.1 m/s)
gusting to 23 MPH (20 knots; 10.3 m/s)
Visibility: 6 or more miles 10+ km)
Ceiling: unknown
Clouds: missing
Weather: NSW  (no significant weather)